Time;durP1;ratioP1;P1;durP2;ratioP2;P2;SDS_P1;SDS_P2;PMS_P1;PMS_P2;Temp;Humidity;BMP_temperature;BMP_pressure;BME280_temperature;BME280_humidity;BME280_pressure;Samples;Min_cycle;Max_cycle;Signal;HPM_P1;HPM_P2
2021/07/22 00:01:55;;;;;;;6.97;5.17;;;;;;;18.13;79.71;98619.38;5093401;28;20215;-65
2021/07/22 00:04:21;;;;;;;6.20;5.33;;;;;;;17.99;80.07;98613.59;5092495;28;20214;-65
2021/07/22 00:06:48;;;;;;;5.73;5.03;;;;;;;17.87;81.01;98623.56;5092532;28;20221;-65
2021/07/22 00:09:16;;;;;;;6.03;5.10;;;;;;;17.75;81.40;98632.69;5093228;28;20207;-64
2021/07/22 00:11:45;;;;;;;5.90;5.30;;;;;;;17.70;81.08;98629.63;5093223;28;20218;-65
2021/07/22 00:14:11;;;;;;;5.97;5.07;;;;;;;17.63;81.64;98624.94;5093185;28;20214;-65
2021/07/22 00:16:38;;;;;;;6.23;5.10;;;;;;;17.53;82.86;98624.94;5093285;28;20218;-65
2021/07/22 00:19:04;;;;;;;8.20;5.20;;;;;;;17.43;83.05;98623.22;5093191;28;20237;-64
2021/07/22 00:21:30;;;;;;;7.07;5.43;;;;;;;17.35;83.29;98623.84;5093118;28;20226;-64
2021/07/22 00:23:57;;;;;;;6.57;4.67;;;;;;;17.27;83.24;98620.19;5082436;28;20200;-64
2021/07/22 00:26:25;;;;;;;6.40;5.17;;;;;;;17.19;83.62;98620.84;5073025;28;20216;-65
2021/07/22 00:28:51;;;;;;;6.70;5.50;;;;;;;17.18;83.47;98610.31;5072672;28;20215;-65
2021/07/22 00:31:18;;;;;;;6.27;5.67;;;;;;;17.09;84.81;98616.44;5070930;28;20215;-64
2021/07/22 00:33:44;;;;;;;6.40;5.13;;;;;;;17.03;85.01;98611.66;5072940;28;20207;-64
2021/07/22 00:36:12;;;;;;;6.03;5.40;;;;;;;16.98;85.01;98606.72;5072896;28;20207;-64
2021/07/22 00:38:39;;;;;;;6.57;5.87;;;;;;;16.97;84.22;98610.38;5072791;28;20235;-64
2021/07/22 00:41:10;;;;;;;7.03;5.20;;;;;;;16.93;84.58;98608.94;5072753;28;20208;-64
2021/07/22 00:43:39;;;;;;;6.77;5.73;;;;;;;16.90;84.91;98609.22;5072963;28;20219;-65
2021/07/22 00:46:05;;;;;;;6.20;5.57;;;;;;;16.88;86.30;98605.81;5072503;28;20214;-65
2021/07/22 00:48:31;;;;;;;6.90;5.37;;;;;;;16.82;86.61;98606.34;5072795;28;20204;-64
2021/07/22 00:50:58;;;;;;;6.33;5.43;;;;;;;16.78;87.25;98604.94;5072735;28;20208;-64
2021/07/22 00:53:24;;;;;;;6.80;5.70;;;;;;;16.78;87.70;98612.09;5072297;28;20214;-64
2021/07/22 00:55:52;;;;;;;7.13;5.67;;;;;;;16.74;88.23;98605.31;5072378;28;20207;-64
2021/07/22 00:58:18;;;;;;;6.13;5.40;;;;;;;16.70;89.02;98599.41;5070882;28;20219;-64
2021/07/22 01:00:46;;;;;;;7.40;5.90;;;;;;;16.68;89.19;98593.38;5072272;28;20239;-65
2021/07/22 01:03:12;;;;;;;6.07;5.27;;;;;;;16.60;89.73;98603.88;5072367;28;20208;-65
2021/07/22 01:05:39;;;;;;;7.87;5.40;;;;;;;16.56;89.97;98602.44;5076155;28;20208;-65
2021/07/22 01:08:05;;;;;;;6.10;5.17;;;;;;;16.60;89.49;98603.00;5076326;28;20219;-65
2021/07/22 01:10:32;;;;;;;7.23;5.67;;;;;;;16.63;88.79;98600.91;5075954;28;20207;-64
2021/07/22 01:12:58;;;;;;;5.80;5.20;;;;;;;16.65;88.83;98593.59;5075865;28;20682;-64
2021/07/22 01:15:25;;;;;;;5.90;5.30;;;;;;;16.63;89.48;98594.75;5075819;28;20211;-65
2021/07/22 01:17:52;;;;;;;7.93;5.63;;;;;;;16.54;90.81;98596.38;5076085;28;20222;-64
2021/07/22 01:20:21;;;;;;;6.07;5.30;;;;;;;16.52;90.97;98592.97;5075956;28;20231;-64
2021/07/22 01:22:49;;;;;;;6.33;5.53;;;;;;;16.51;90.34;98593.13;5076638;28;20208;-64
2021/07/22 01:25:18;;;;;;;7.13;6.20;;;;;;;16.49;90.72;98587.91;5094258;28;20211;-65
2021/07/22 01:27:45;;;;;;;6.80;5.77;;;;;;;16.48;90.78;98590.72;5096293;28;20640;-65
2021/07/22 01:30:13;;;;;;;6.70;6.00;;;;;;;16.39;91.30;98597.69;5096050;28;20214;-64
2021/07/22 01:32:40;;;;;;;6.77;6.07;;;;;;;16.29;91.86;98602.09;5096160;28;20588;-65
2021/07/22 01:35:09;;;;;;;7.87;5.70;;;;;;;16.22;92.62;98595.56;5095904;28;20211;-64
2021/07/22 01:37:38;;;;;;;8.03;6.30;;;;;;;16.17;92.79;98608.47;5095741;28;20234;-64
2021/07/22 01:40:06;;;;;;;7.43;6.20;;;;;;;16.11;93.87;98602.78;5095664;28;20230;-64
2021/07/22 01:42:32;;;;;;;9.67;6.53;;;;;;;16.02;94.72;98592.88;5095647;28;20222;-64
2021/07/22 01:44:59;;;;;;;9.67;7.00;;;;;;;15.96;95.58;98597.88;5095974;28;20207;-65
2021/07/22 01:47:27;;;;;;;10.17;7.23;;;;;;;15.91;95.68;98589.41;5095855;28;20670;-64
2021/07/22 01:49:53;;;;;;;7.13;6.07;;;;;;;15.81;96.50;98591.16;5093803;28;20211;-64
2021/07/22 01:52:20;;;;;;;7.40;6.70;;;;;;;15.75;97.17;98589.00;5095726;28;20203;-64
2021/07/22 01:54:47;;;;;;;7.47;6.47;;;;;;;15.66;97.98;98587.09;5095403;28;20214;-64
2021/07/22 01:57:14;;;;;;;8.37;7.00;;;;;;;15.58;99.45;98586.91;5095730;28;20210;-64
2021/07/22 01:59:40;;;;;;;9.23;6.90;;;;;;;15.52;100.00;98590.06;5095482;28;20238;-64
2021/07/22 02:02:08;;;;;;;7.80;6.63;;;;;;;15.49;100.00;98591.16;5095588;28;20207;-64
2021/07/22 02:04:36;;;;;;;8.37;6.57;;;;;;;15.53;100.00;98586.41;5095531;28;20207;-64
2021/07/22 02:07:03;;;;;;;8.57;7.00;;;;;;;15.51;100.00;98588.38;5095152;28;20218;-64
2021/07/22 02:09:30;;;;;;;8.60;7.00;;;;;;;15.47;100.00;98581.59;5095095;28;20692;-64
2021/07/22 02:11:59;;;;;;;10.00;7.33;;;;;;;15.44;100.00;98587.16;5095374;28;20578;-64
2021/07/22 02:14:27;;;;;;;8.67;7.03;;;;;;;15.44;100.00;98581.81;5095005;28;20203;-64
2021/07/22 02:16:54;;;;;;;9.10;7.33;;;;;;;15.40;100.00;98583.06;5093554;28;20207;-64
2021/07/22 02:19:20;;;;;;;7.80;6.57;;;;;;;15.35;100.00;98569.28;5095333;28;20587;-64
2021/07/22 02:21:47;;;;;;;9.33;7.27;;;;;;;15.37;100.00;98573.50;5095260;28;20215;-65
2021/07/22 02:24:15;;;;;;;9.20;7.40;;;;;;;15.30;100.00;98572.28;5082075;28;20277;-64
2021/07/22 02:26:42;;;;;;;9.50;7.03;;;;;;;15.35;100.00;98579.94;5074640;28;20297;-64
2021/07/22 02:29:10;;;;;;;10.83;7.97;;;;;;;15.32;100.00;98575.69;5074490;28;20212;-64
2021/07/22 02:31:36;;;;;;;9.03;6.53;;;;;;;15.32;100.00;98575.69;5074791;28;20216;-64
2021/07/22 02:34:02;;;;;;;9.57;7.17;;;;;;;15.36;100.00;98578.94;5074479;28;20207;-64
2021/07/22 02:36:29;;;;;;;8.00;5.90;;;;;;;15.32;100.00;98580.13;5074744;28;20203;-64
2021/07/22 02:38:56;;;;;;;9.23;6.43;;;;;;;15.33;100.00;98579.22;5074692;28;20242;-64
2021/07/22 02:41:22;;;;;;;9.10;7.17;;;;;;;15.34;100.00;98587.06;5074195;28;20231;-64
2021/07/22 02:43:49;;;;;;;9.17;7.00;;;;;;;15.34;100.00;98575.56;5072829;28;20217;-64
2021/07/22 02:46:17;;;;;;;9.40;6.87;;;;;;;15.32;100.00;98580.13;5074496;28;20208;-64
2021/07/22 02:48:43;;;;;;;11.13;7.13;;;;;;;15.28;100.00;98584.03;5074204;28;20214;-64
2021/07/22 02:51:09;;;;;;;7.77;6.83;;;;;;;15.20;100.00;98583.78;5074509;28;20294;-64
2021/07/22 02:53:36;;;;;;;9.93;7.93;;;;;;;15.17;100.00;98570.72;5074427;28;20218;-65
2021/07/22 02:56:04;;;;;;;7.57;6.77;;;;;;;15.11;100.00;98588.06;5074140;28;20261;-64
2021/07/22 02:58:31;;;;;;;11.73;7.93;;;;;;;15.07;100.00;98578.63;5074003;28;20211;-64
2021/07/22 03:00:58;;;;;;;9.43;7.20;;;;;;;15.10;100.00;98590.84;5074253;28;20235;-64
2021/07/22 03:03:26;;;;;;;9.57;7.90;;;;;;;15.22;100.00;98592.50;5074147;28;20208;-64
2021/07/22 03:05:52;;;;;;;8.77;7.73;;;;;;;15.25;100.00;98586.94;5073736;28;20207;-64
2021/07/22 03:08:21;;;;;;;9.60;7.13;;;;;;;15.29;100.00;98586.59;5072316;28;20233;-64
2021/07/22 03:10:48;;;;;;;9.40;7.63;;;;;;;15.41;100.00;98587.41;5073853;28;20679;-64
2021/07/22 03:13:14;;;;;;;9.60;7.20;;;;;;;15.44;100.00;98590.69;5074083;28;20203;-64
2021/07/22 03:15:41;;;;;;;10.17;7.47;;;;;;;15.43;100.00;98598.78;5073980;28;20225;-64
2021/07/22 03:18:07;;;;;;;7.80;7.00;;;;;;;15.45;100.00;98596.88;5073564;28;20211;-64
2021/07/22 03:20:35;;;;;;;9.00;7.00;;;;;;;15.50;100.00;98597.31;5073445;28;20238;-64
2021/07/22 03:23:02;;;;;;;8.53;7.00;;;;;;;15.56;100.00;98588.81;5076361;28;20207;-64
2021/07/22 03:25:28;;;;;;;8.60;7.50;;;;;;;15.57;100.00;98598.53;5093934;28;20218;-64
2021/07/22 03:27:59;;;;;;;8.70;7.73;;;;;;;15.60;100.00;98598.25;5093379;28;20218;-65
2021/07/22 03:30:26;;;;;;;9.33;7.80;;;;;;;15.57;100.00;98601.19;5093562;28;20218;-64
2021/07/22 03:32:52;;;;;;;11.87;8.50;;;;;;;15.62;100.00;98598.97;5093860;28;20206;-64
2021/07/22 03:35:19;;;;;;;10.40;8.53;;;;;;;15.66;100.00;98595.09;5092200;28;20218;-64
2021/07/22 03:37:47;;;;;;;9.77;8.13;;;;;;;15.66;100.00;98595.09;5093725;28;20235;-64
2021/07/22 03:40:14;;;;;;;11.67;8.57;;;;;;;15.68;100.00;98598.47;5093388;28;20529;-64
2021/07/22 03:42:40;;;;;;;10.03;8.80;;;;;;;15.64;100.00;98589.06;5093750;28;20214;-64
2021/07/22 03:45:07;;;;;;;9.73;8.60;;;;;;;15.59;100.00;98588.59;5093622;28;20207;-64
2021/07/22 03:47:34;;;;;;;9.23;8.23;;;;;;;15.49;100.00;98596.47;5093230;28;20218;-64
2021/07/22 03:50:02;;;;;;;10.03;8.27;;;;;;;15.36;100.00;98593.13;5093215;28;20211;-64
2021/07/22 03:52:28;;;;;;;9.33;8.30;;;;;;;15.25;100.00;98594.91;5093573;28;20307;-64
2021/07/22 03:54:56;;;;;;;10.33;8.03;;;;;;;15.15;100.00;98593.97;5093203;28;20211;-64
2021/07/22 03:57:23;;;;;;;9.03;7.83;;;;;;;15.02;100.00;98604.75;5093498;28;20218;-64
2021/07/22 03:59:49;;;;;;;10.60;8.50;;;;;;;14.98;100.00;98605.13;5093067;28;20218;-64
2021/07/22 04:02:16;;;;;;;10.70;7.10;;;;;;;14.94;100.00;98611.66;5091782;28;20210;-64
2021/07/22 04:04:42;;;;;;;8.30;7.27;;;;;;;14.86;100.00;98614.06;5092939;28;20203;-64
2021/07/22 04:07:09;;;;;;;9.57;7.77;;;;;;;14.84;100.00;98606.22;5093280;28;20215;-64
2021/07/22 04:09:35;;;;;;;9.83;7.33;;;;;;;14.82;100.00;98607.28;5092879;28;20669;-64
2021/07/22 04:12:03;;;;;;;11.37;8.53;;;;;;;14.83;100.00;98606.31;5093216;28;20207;-64
2021/07/22 04:14:30;;;;;;;10.33;7.60;;;;;;;14.84;100.00;98603.53;5093038;28;20574;-64
2021/07/22 04:16:56;;;;;;;10.73;7.93;;;;;;;14.94;100.00;98606.31;5092962;28;20214;-64
2021/07/22 04:19:23;;;;;;;10.10;7.60;;;;;;;14.95;100.00;98597.38;5093190;28;20217;-64
2021/07/22 04:21:49;;;;;;;11.90;7.93;;;;;;;15.00;100.00;98600.50;5093118;28;20242;-64
2021/07/22 04:24:16;;;;;;;9.77;7.47;;;;;;;15.08;100.00;98614.06;5080003;28;20204;-64
2021/07/22 04:26:42;;;;;;;10.27;8.07;;;;;;;15.17;100.00;98600.03;5071896;28;20207;-64
2021/07/22 04:29:10;;;;;;;10.37;8.67;;;;;;;15.30;100.00;98596.25;5072195;28;20216;-64
2021/07/22 04:31:36;;;;;;;10.73;8.13;;;;;;;15.40;100.00;98607.03;5072598;28;20215;-64
2021/07/22 04:34:03;;;;;;;8.73;7.83;;;;;;;15.42;100.00;98607.75;5072798;28;20215;-64
2021/07/22 04:36:31;;;;;;;9.73;7.33;;;;;;;15.46;100.00;98603.88;5072830;28;20317;-64
2021/07/22 04:38:57;;;;;;;10.07;8.40;;;;;;;15.56;100.00;98612.78;5075050;28;20238;-64
2021/07/22 04:41:24;;;;;;;10.97;8.50;;;;;;;15.74;100.00;98608.63;5076464;28;20242;-64
2021/07/22 04:43:50;;;;;;;12.37;9.37;;;;;;;15.85;100.00;98611.25;5076466;28;20207;-64
2021/07/22 04:46:18;;;;;;;11.10;9.00;;;;;;;15.93;100.00;98611.47;5076772;28;20218;-64
2021/07/22 04:48:44;;;;;;;11.30;8.27;;;;;;;16.03;100.00;98616.75;5076384;28;20215;-64
2021/07/22 04:51:11;;;;;;;10.20;8.57;;;;;;;16.02;100.00;98615.06;5076373;28;20697;-66
2021/07/22 04:53:37;;;;;;;12.67;8.33;;;;;;;16.13;100.00;98612.34;5074667;28;20203;-66
2021/07/22 04:56:04;;;;;;;11.43;7.90;;;;;;;16.17;100.00;98611.13;5076394;28;20207;-65
2021/07/22 04:58:31;;;;;;;11.10;8.87;;;;;;;16.25;100.00;98621.97;5076559;28;20231;-67
2021/07/22 05:00:57;;;;;;;10.67;8.27;;;;;;;16.28;100.00;98621.72;5076428;28;20231;-65
2021/07/22 05:03:25;;;;;;;9.83;7.97;;;;;;;16.34;100.00;98610.53;5076393;28;20215;-65
2021/07/22 05:05:51;;;;;;;11.83;7.73;;;;;;;16.41;100.00;98609.06;5076348;28;20218;-65
2021/07/22 05:08:18;;;;;;;11.70;8.30;;;;;;;16.52;100.00;98614.31;5076021;28;20211;-65
2021/07/22 05:10:44;;;;;;;11.07;8.43;;;;;;;16.72;100.00;98610.81;5076300;28;20207;-65
2021/07/22 05:13:12;;;;;;;10.10;8.33;;;;;;;16.95;100.00;98617.66;5076306;28;20214;-65
2021/07/22 05:15:38;;;;;;;11.03;8.20;;;;;;;17.13;100.00;98616.03;5076335;28;20260;-65
2021/07/22 05:18:05;;;;;;;11.97;8.23;;;;;;;17.27;100.00;98613.03;5076177;28;20212;-66
2021/07/22 05:20:32;;;;;;;8.63;7.43;;;;;;;17.46;100.00;98614.91;5074350;28;20256;-67
2021/07/22 05:23:00;;;;;;;10.00;8.13;;;;;;;17.86;96.75;98627.22;5078452;28;20207;-66
2021/07/22 05:25:27;;;;;;;10.97;7.83;;;;;;;18.50;91.95;98620.34;5096266;28;20221;-67
2021/07/22 05:27:53;;;;;;;9.90;7.87;;;;;;;19.22;87.47;98616.06;5096222;28;20215;-67
2021/07/22 05:30:20;;;;;;;7.77;6.57;;;;;;;19.90;83.11;98622.72;5096138;28;20213;-67
2021/07/22 05:32:46;;;;;;;9.40;7.03;;;;;;;20.42;78.99;98620.06;5095928;28;20203;-65
2021/07/22 05:35:12;;;;;;;9.07;7.23;;;;;;;20.88;75.32;98626.97;5096137;28;20216;-65
2021/07/22 05:37:40;;;;;;;8.93;6.90;;;;;;;21.19;73.41;98623.63;5095991;28;20238;-65
2021/07/22 05:40:08;;;;;;;8.67;6.87;;;;;;;21.52;71.31;98622.75;5096086;28;20210;-65
2021/07/22 05:42:35;;;;;;;8.10;7.30;;;;;;;21.53;70.80;98619.06;5095795;28;20218;-65
2021/07/22 05:45:01;;;;;;;8.27;7.00;;;;;;;21.71;70.54;98619.00;5095829;28;20211;-65
2021/07/22 05:47:28;;;;;;;10.37;7.20;;;;;;;22.08;68.26;98628.31;5094145;28;20214;-66
2021/07/22 05:49:54;;;;;;;10.67;7.23;;;;;;;22.10;67.70;98634.41;5095234;28;20218;-66
2021/07/22 05:52:20;;;;;;;8.07;7.20;;;;;;;21.80;69.11;98635.00;5095817;28;20214;-67
2021/07/22 05:54:48;;;;;;;9.23;7.20;;;;;;;22.20;68.03;98624.31;5095698;28;20574;-66
2021/07/22 05:57:15;;;;;;;8.97;7.63;;;;;;;22.74;64.80;98626.38;5095539;28;20591;-66
2021/07/22 05:59:41;;;;;;;9.80;7.57;;;;;;;23.14;63.06;98620.06;5095488;28;20703;-67
2021/07/22 06:02:08;;;;;;;8.30;7.33;;;;;;;23.54;61.74;98628.06;5095681;28;20242;-67
2021/07/22 06:04:35;;;;;;;8.70;7.63;;;;;;;23.86;59.93;98634.16;5095534;28;20260;-65
2021/07/22 06:07:01;;;;;;;8.97;7.20;;;;;;;24.18;58.84;98625.88;5095429;28;20207;-67
2021/07/22 06:09:28;;;;;;;8.07;6.70;;;;;;;24.46;57.35;98627.03;5095449;28;20214;-66
2021/07/22 06:11:56;;;;;;;8.50;7.30;;;;;;;24.57;55.64;98621.19;5093355;28;20206;-67
2021/07/22 06:14:22;;;;;;;8.97;7.20;;;;;;;24.61;55.15;98625.22;5095182;28;20222;-66
2021/07/22 06:16:49;;;;;;;7.53;6.77;;;;;;;24.84;55.08;98631.44;5095282;28;20203;-70
2021/07/22 06:19:16;;;;;;;10.20;7.53;;;;;;;25.13;54.17;98631.50;5095331;28;20217;-67
2021/07/22 06:21:42;;;;;;;9.90;7.60;;;;;;;25.30;53.74;98635.72;5094850;28;20226;-67
2021/07/22 06:24:09;;;;;;;7.80;7.00;;;;;;;25.47;53.44;98633.69;5082910;28;20210;-66
2021/07/22 06:26:36;;;;;;;9.77;6.50;;;;;;;25.71;53.11;98636.94;5074952;28;20305;-67
2021/07/22 06:29:04;;;;;;;11.07;7.80;;;;;;;25.80;50.61;98641.22;5074970;28;20207;-67
2021/07/22 06:31:31;;;;;;;8.80;7.47;;;;;;;25.93;50.63;98636.00;5074691;28;20207;-67
2021/07/22 06:33:57;;;;;;;8.53;6.70;;;;;;;26.15;50.90;98632.28;5074455;28;20211;-67
2021/07/22 06:36:24;;;;;;;7.77;6.90;;;;;;;26.38;49.73;98632.09;5074343;28;20689;-67
2021/07/22 06:38:50;;;;;;;8.23;6.87;;;;;;;26.30;49.41;98629.50;5073123;28;20239;-66
2021/07/22 06:41:19;;;;;;;7.90;6.97;;;;;;;26.25;49.50;98623.81;5071061;28;20238;-66
2021/07/22 06:43:46;;;;;;;7.47;6.47;;;;;;;26.16;49.38;98630.41;5073366;28;20211;-66
2021/07/22 06:46:14;;;;;;;7.93;6.90;;;;;;;26.06;49.06;98628.03;5072035;28;20552;-66
2021/07/22 06:48:40;;;;;;;11.03;7.90;;;;;;;25.91;50.09;98632.63;5071407;28;20212;-64
2021/07/22 06:51:08;;;;;;;8.33;7.53;;;;;;;25.79;49.87;98634.09;5081317;28;20203;-65
2021/07/22 06:53:34;;;;;;;8.30;7.10;;;;;;;26.09;49.74;98630.34;5092700;28;20211;-65
2021/07/22 06:56:02;;;;;;;7.93;7.10;;;;;;;26.25;49.49;98635.53;5092422;28;20673;-65
2021/07/22 06:58:29;;;;;;;9.70;7.30;;;;;;;26.33;48.65;98632.69;5093600;28;20211;-65
2021/07/22 07:00:55;;;;;;;8.87;6.87;;;;;;;26.08;48.45;98628.66;5092739;28;20234;-66
2021/07/22 07:03:23;;;;;;;7.70;6.73;;;;;;;25.40;50.12;98632.72;5092242;28;20210;-65
2021/07/22 07:05:50;;;;;;;8.60;7.17;;;;;;;24.84;52.03;98627.91;5091933;28;20207;-66
2021/07/22 07:08:16;;;;;;;10.50;7.47;;;;;;;23.90;53.40;98632.78;5093308;28;20221;-65
2021/07/22 07:10:43;;;;;;;9.40;7.10;;;;;;;23.27;56.67;98631.19;5093321;28;20646;-65
2021/07/22 07:13:09;;;;;;;8.13;7.33;;;;;;;22.91;58.34;98633.44;5093374;28;20233;-65
2021/07/22 07:15:36;;;;;;;8.20;7.40;;;;;;;22.65;59.17;98624.72;5092203;28;20217;-65
2021/07/22 07:18:03;;;;;;;10.40;6.83;;;;;;;22.37;60.36;98631.41;5093447;28;20214;-65
2021/07/22 07:20:32;;;;;;;8.47;7.57;;;;;;;22.33;59.66;98630.06;5093404;28;20214;-65
2021/07/22 07:22:58;;;;;;;8.10;6.73;;;;;;;22.14;59.56;98621.47;5092816;28;20321;-65
2021/07/22 07:25:25;;;;;;;8.70;7.07;;;;;;;22.18;61.26;98634.41;5093077;28;20217;-65
2021/07/22 07:27:51;;;;;;;10.03;7.43;;;;;;;22.12;60.82;98632.38;5092957;28;20677;-66
2021/07/22 07:30:19;;;;;;;7.80;7.00;;;;;;;21.99;61.29;98625.78;5092975;28;20558;-65
2021/07/22 07:32:46;;;;;;;7.23;6.10;;;;;;;21.97;61.47;98628.66;5091901;28;20222;-64
2021/07/22 07:35:14;;;;;;;7.87;6.50;;;;;;;22.07;61.76;98623.13;5093101;28;20593;-65
2021/07/22 07:37:42;;;;;;;7.50;6.73;;;;;;;22.16;62.81;98619.44;5093106;28;20234;-64
2021/07/22 07:40:10;;;;;;;9.07;7.67;;;;;;;22.19;63.48;98622.63;5092859;28;20206;-64
2021/07/22 07:42:37;;;;;;;9.60;6.90;;;;;;;22.31;62.80;98626.69;5092525;28;20603;-64
2021/07/22 07:45:05;;;;;;;8.30;6.53;;;;;;;22.36;63.26;98613.56;5089080;28;20214;-65
2021/07/22 07:47:31;;;;;;;10.37;7.30;;;;;;;22.55;64.33;98617.81;5092113;28;20222;-65
2021/07/22 07:49:58;;;;;;;10.27;8.03;;;;;;;22.61;63.69;98611.75;5091507;28;20222;-64
2021/07/22 07:52:25;;;;;;;9.57;7.53;;;;;;;22.58;62.21;98617.47;5091150;28;20221;-64
2021/07/22 07:54:54;;;;;;;9.93;8.13;;;;;;;22.50;62.19;98614.78;5071287;28;20211;-65
2021/07/22 07:57:20;;;;;;;9.13;7.20;;;;;;;22.50;62.18;98610.22;5070017;28;20208;-65
2021/07/22 07:59:47;;;;;;;8.27;7.03;;;;;;;22.47;62.53;98607.88;5071054;28;20222;-65
2021/07/22 08:02:14;;;;;;;12.77;8.30;;;;;;;22.60;63.48;98610.91;5071329;28;20242;-65
2021/07/22 08:04:41;;;;;;;9.70;7.93;;;;;;;22.61;63.29;98609.88;5070854;28;20211;-65
2021/07/22 08:07:07;;;;;;;10.97;7.63;;;;;;;22.72;62.57;98603.28;5070480;28;20214;-65
2021/07/22 08:09:34;;;;;;;8.73;6.73;;;;;;;22.82;61.40;98604.81;5071655;28;20215;-64
2021/07/22 08:12:02;;;;;;;8.87;6.77;;;;;;;22.88;60.91;98600.59;5071541;28;20566;-64
2021/07/22 08:14:29;;;;;;;10.93;7.63;;;;;;;22.97;59.58;98613.88;5069813;28;20208;-64
2021/07/22 08:16:56;;;;;;;8.43;6.97;;;;;;;22.93;59.80;98606.31;5071143;28;20254;-65
2021/07/22 08:19:22;;;;;;;10.03;7.63;;;;;;;23.10;59.74;98603.38;5071302;28;20215;-65
2021/07/22 08:21:49;;;;;;;8.23;7.17;;;;;;;22.93;59.26;98609.81;5069952;28;20235;-65
2021/07/22 08:24:15;;;;;;;10.20;7.17;;;;;;;22.91;59.83;98603.78;5080935;28;20207;-64
2021/07/22 08:26:42;;;;;;;7.90;6.77;;;;;;;23.01;59.50;98601.75;5092440;28;20242;-64
2021/07/22 08:29:09;;;;;;;8.30;7.10;;;;;;;23.10;59.21;98599.88;5092398;28;20241;-65
2021/07/22 08:31:37;;;;;;;8.23;6.80;;;;;;;23.20;57.64;98595.97;5092114;28;20211;-65
2021/07/22 08:34:03;;;;;;;8.43;6.53;;;;;;;23.27;58.29;98594.25;5091810;28;20218;-64
2021/07/22 08:36:30;;;;;;;8.23;6.23;;;;;;;23.35;57.00;98590.72;5092143;28;20234;-65
2021/07/22 08:38:56;;;;;;;9.13;6.87;;;;;;;23.45;57.35;98594.88;5092053;28;20697;-64
2021/07/22 08:41:23;;;;;;;9.17;6.60;;;;;;;23.50;55.82;98588.94;5092181;28;20207;-65
2021/07/22 08:43:52;;;;;;;8.40;6.83;;;;;;;23.60;55.82;98598.50;5092030;28;20214;-65
2021/07/22 08:46:20;;;;;;;6.87;6.07;;;;;;;23.69;56.37;98599.28;5091972;28;20218;-65
2021/07/22 08:48:46;;;;;;;7.30;6.40;;;;;;;23.85;55.52;98600.06;5092190;28;20214;-65
2021/07/22 08:51:13;;;;;;;8.57;6.90;;;;;;;24.14;53.99;98602.94;5090328;28;20214;-64
2021/07/22 08:53:41;;;;;;;8.73;6.43;;;;;;;24.13;53.55;98603.97;5092184;28;20215;-64
2021/07/22 08:56:08;;;;;;;7.30;6.57;;;;;;;24.19;53.21;98602.41;5092132;28;20564;-64
2021/07/22 08:58:39;;;;;;;7.07;6.33;;;;;;;24.09;52.60;98608.03;5092100;28;20210;-65
2021/07/22 09:01:07;;;;;;;6.93;5.97;;;;;;;24.10;52.97;98598.94;5092133;28;20209;-64
2021/07/22 09:03:35;;;;;;;8.20;6.10;;;;;;;24.22;52.63;98605.59;5092198;28;20238;-64
2021/07/22 09:06:13;;;;;;;8.10;6.17;;;;;;;24.35;52.46;98595.03;5092296;28;20223;-65
2021/07/22 09:08:39;;;;;;;7.57;6.40;;;;;;;24.50;50.70;98593.19;5092188;28;20210;-65
2021/07/22 09:11:07;;;;;;;6.90;6.20;;;;;;;24.56;51.34;98591.66;5092010;28;20211;-64
2021/07/22 09:13:35;;;;;;;7.60;6.43;;;;;;;24.82;52.03;98597.50;5092161;28;20211;-64
2021/07/22 09:16:01;;;;;;;7.27;6.27;;;;;;;24.82;51.13;98597.50;5092155;28;20214;-64
2021/07/22 09:18:31;;;;;;;6.87;6.17;;;;;;;24.85;48.97;98597.97;5090324;28;20215;-64
2021/07/22 09:20:59;;;;;;;9.97;6.30;;;;;;;24.81;49.71;98599.34;5092009;28;20218;-64
2021/07/22 09:23:27;;;;;;;6.67;6.00;;;;;;;24.88;50.68;98594.88;5091578;28;20701;-64
2021/07/22 09:25:54;;;;;;;7.20;5.60;;;;;;;25.04;49.78;98600.13;5094523;28;20213;-65
2021/07/22 09:28:22;;;;;;;8.33;6.33;;;;;;;25.11;49.18;98594.84;5095503;28;20207;-64
2021/07/22 09:31:00;;;;;;;11.17;6.40;;;;;;;25.28;49.22;98591.78;5095658;28;20233;-64
2021/07/22 09:33:34;;;;;;;8.20;5.83;;;;;;;25.41;49.30;98597.38;5095313;28;20222;-64
2021/07/22 09:36:02;;;;;;;8.53;5.60;;;;;;;25.56;49.98;98591.94;5095533;28;20207;-64
2021/07/22 09:38:29;;;;;;;6.20;5.60;;;;;;;25.60;49.19;98596.78;5095440;28;20241;-64
2021/07/22 09:40:55;;;;;;;8.05;6.13;;;;;;;25.55;47.83;98591.09;5095531;28;20584;-64
2021/07/22 09:43:36;;;;;;;6.40;5.40;;;;;;;25.61;48.94;98590.34;5093816;28;20239;-64
2021/07/22 09:46:03;;;;;;;9.80;6.67;;;;;;;25.76;47.61;98591.16;5095122;28;20210;-64
2021/07/22 09:48:29;;;;;;;8.90;6.20;;;;;;;25.63;47.48;98591.00;5095382;28;20209;-65
2021/07/22 09:50:56;;;;;;;7.00;5.80;;;;;;;25.56;46.61;98584.69;5095327;28;20209;-65
2021/07/22 09:53:26;;;;;;;6.75;5.70;;;;;;;25.62;48.10;98586.63;5095086;28;20584;-64
2021/07/22 09:55:55;;;;;;;9.15;5.85;;;;;;;25.64;47.41;98589.97;5095195;28;20272;-63
2021/07/22 09:58:22;;;;;;;7.93;5.97;;;;;;;25.76;46.64;98577.63;5094865;28;20221;-63
2021/07/22 10:00:49;;;;;;;7.30;5.68;;;;;;;25.78;45.97;98580.97;5095225;28;20218;-64
2021/07/22 10:03:18;;;;;;;6.88;6.18;;;;;;;25.76;45.50;98574.91;5091383;28;20226;-63
2021/07/22 10:05:46;;;;;;;6.50;5.80;;;;;;;25.67;47.06;98565.22;5093842;28;20207;-64
2021/07/22 10:08:17;;;;;;;7.93;5.70;;;;;;;25.74;46.44;98571.56;5093587;28;20673;-64
2021/07/22 10:10:49;;;;;;;7.53;5.93;;;;;;;25.65;46.11;98566.44;5091568;28;20210;-64
2021/07/22 10:13:17;;;;;;;7.07;5.33;;;;;;;25.80;45.82;98567.25;5075609;28;20199;-63
2021/07/22 10:15:45;;;;;;;7.43;5.73;;;;;;;25.90;45.37;98563.22;5073301;28;20218;-64
2021/07/22 10:18:12;;;;;;;7.20;5.82;;;;;;;25.84;45.52;98561.25;5072979;28;20215;-64
2021/07/22 10:20:42;;;;;;;7.45;5.53;;;;;;;25.85;46.04;98557.50;5073967;28;20207;-63
2021/07/22 10:23:09;;;;;;;6.43;5.43;;;;;;;25.89;45.78;98556.09;5075758;28;20483;-64
2021/07/22 10:25:36;;;;;;;7.32;5.65;;;;;;;25.99;46.25;98551.25;5092347;28;20211;-64
2021/07/22 10:28:05;;;;;;;7.83;6.37;;;;;;;26.13;45.17;98552.19;5092635;28;20207;-63
2021/07/22 10:30:32;;;;;;;6.93;5.85;;;;;;;25.98;44.35;98546.03;5093529;28;20211;-63
2021/07/22 10:33:01;;;;;;;6.77;5.70;;;;;;;25.98;44.82;98552.25;5092348;28;20214;-63
2021/07/22 10:35:30;;;;;;;6.38;5.78;;;;;;;25.97;43.98;98545.16;5094125;28;20225;-63
2021/07/22 10:38:09;;;;;;;6.57;5.90;;;;;;;25.97;44.98;98542.47;5092761;28;20578;-63
2021/07/22 10:40:50;;;;;;;7.20;5.97;;;;;;;25.97;45.17;98544.34;5094429;28;20260;-63
2021/07/22 10:43:38;;;;;;;6.82;5.88;;;;;;;26.17;44.78;98535.41;5094187;28;20238;-63
2021/07/22 10:46:05;;;;;;;6.68;6.03;;;;;;;26.19;44.39;98532.47;5094238;28;20581;-63
2021/07/22 10:48:32;;;;;;;9.10;5.80;;;;;;;26.12;45.54;98529.72;5094228;28;20217;-63
2021/07/22 10:51:00;;;;;;;8.15;5.95;;;;;;;26.22;46.48;98530.19;5094131;28;20217;-63
2021/07/22 10:53:44;;;;;;;6.85;6.18;;;;;;;26.28;45.92;98534.03;5094021;28;20210;-64
2021/07/22 10:56:13;;;;;;;7.03;5.93;;;;;;;26.33;46.15;98529.69;5094065;28;20218;-63
2021/07/22 10:58:59;;;;;;;7.03;6.03;;;;;;;26.50;47.69;98531.09;5094040;28;20222;-63
2021/07/22 11:02:00;;;;;;;7.90;6.47;;;;;;;26.67;44.67;98526.22;5094081;28;20290;-63
2021/07/22 11:04:43;;;;;;;6.72;5.78;;;;;;;26.64;45.15;98530.19;5092176;28;20233;-63
2021/07/22 11:07:28;;;;;;;7.60;6.43;;;;;;;26.77;45.02;98521.31;5093895;28;20222;-63
2021/07/22 11:10:01;;;;;;;7.85;6.47;;;;;;;26.77;46.48;98524.84;5093904;28;20215;-63
2021/07/22 11:12:39;;;;;;;7.38;6.43;;;;;;;26.84;45.73;98520.31;5093791;28;20211;-63
2021/07/22 11:15:08;;;;;;;6.68;6.07;;;;;;;27.02;45.56;98521.47;5093751;28;20206;-63
2021/07/22 11:17:35;;;;;;;6.57;5.82;;;;;;;27.21;44.60;98519.94;5093770;28;20561;-63
2021/07/22 11:20:35;;;;;;;8.93;5.97;;;;;;;27.35;43.13;98527.09;5093711;28;20242;-63
2021/07/22 11:23:17;;;;;;;7.25;6.47;;;;;;;27.13;43.69;98514.63;5090538;28;20253;-63
2021/07/22 11:25:46;;;;;;;7.18;6.15;;;;;;;26.95;44.94;98514.31;5093146;28;20210;-63
2021/07/22 11:28:14;;;;;;;10.18;6.72;;;;;;;27.24;43.12;98514.09;5093434;28;20332;-63
2021/07/22 11:30:58;;;;;;;7.38;6.50;;;;;;;27.07;43.90;98501.03;5091820;28;20206;-63
2021/07/22 11:33:25;;;;;;;7.53;6.25;;;;;;;27.00;44.05;98511.84;5093199;28;20210;-63